Time;durP1;ratioP1;P1;durP2;ratioP2;P2;SDS_P1;SDS_P2;PMS_P1;PMS_P2;Temp;Humidity;BMP_temperature;BMP_pressure;BME280_temperature;BME280_humidity;BME280_pressure;Samples;Min_cycle;Max_cycle;Signal;HPM_P1;HPM_P2
2021/06/29 00:04:58;;;;;;;17.20;6.00;;;18.40;99.90;;;;;;12391528;28;20128;-39
2021/06/29 00:11:00;;;;;;;13.77;5.63;;;18.40;99.90;;;;;;12395444;28;20046;-39
2021/06/29 00:17:02;;;;;;;19.33;5.80;;;18.30;99.90;;;;;;12391773;28;20052;-41
2021/06/29 00:23:04;;;;;;;10.45;5.53;;;18.20;99.90;;;;;;12395748;28;20103;-41
2021/06/29 00:29:06;;;;;;;23.58;6.10;;;18.30;99.90;;;;;;12394133;28;20141;-39
2021/06/29 00:35:08;;;;;;;25.50;6.28;;;18.20;99.90;;;;;;12387406;28;20499;-40
2021/06/29 00:41:11;;;;;;;15.45;5.82;;;18.00;99.90;;;;;;12393089;28;21087;-40
2021/06/29 00:47:14;;;;;;;15.20;5.40;;;18.00;99.90;;;;;;12391720;28;20145;-40
2021/06/29 00:53:17;;;;;;;11.73;5.28;;;18.20;99.90;;;;;;12393707;28;20072;-39
2021/06/29 00:59:19;;;;;;;22.90;6.63;;;18.30;99.90;;;;;;12394283;28;20149;-40
2021/06/29 01:05:21;;;;;;;11.75;6.03;;;18.20;99.90;;;;;;12392097;28;20141;-39
2021/06/29 01:11:23;;;;;;;19.25;6.43;;;18.30;99.90;;;;;;12393089;28;20144;-41
2021/06/29 01:17:25;;;;;;;10.38;5.53;;;18.40;99.90;;;;;;12390687;28;20100;-40
2021/06/29 01:23:29;;;;;;;21.45;6.25;;;18.40;99.90;;;;;;12393138;28;20050;-39
2021/06/29 01:29:51;;;;;;;22.80;5.82;;;18.40;99.90;;;;;;12394187;28;20133;-39
2021/06/29 01:35:53;;;;;;;15.98;6.35;;;18.40;99.90;;;;;;12392261;28;20049;-40
2021/06/29 01:41:54;;;;;;;17.55;6.03;;;18.40;99.90;;;;;;12392579;28;20136;-40
2021/06/29 01:47:58;;;;;;;17.20;6.25;;;18.40;99.90;;;;;;12391174;28;20050;-40
2021/06/29 01:53:59;;;;;;;16.43;6.23;;;18.50;99.90;;;;;;12392047;28;20466;-41
2021/06/29 02:00:03;;;;;;;17.17;7.88;;;18.40;99.90;;;;;;12399589;28;20133;-39
2021/06/29 02:06:05;;;;;;;11.10;6.88;;;18.20;99.90;;;;;;12405757;28;20085;-40
2021/06/29 02:12:07;;;;;;;7.72;6.35;;;18.10;99.90;;;;;;12399396;28;20072;-40
2021/06/29 02:18:09;;;;;;;11.25;6.03;;;18.20;99.90;;;;;;12400731;28;20050;-39
2021/06/29 02:24:11;;;;;;;10.77;6.55;;;18.10;99.90;;;;;;12397428;28;20159;-40
2021/06/29 02:30:13;;;;;;;16.20;6.75;;;18.10;99.90;;;;;;12398983;28;20149;-40
2021/06/29 02:36:15;;;;;;;11.35;6.53;;;18.20;99.90;;;;;;12400013;28;20045;-40
2021/06/29 02:42:18;;;;;;;12.60;6.13;;;18.10;99.90;;;;;;12398931;28;20050;-40
2021/06/29 02:48:20;;;;;;;10.10;5.53;;;18.30;99.90;;;;;;12402207;28;20383;-41
2021/06/29 02:54:22;;;;;;;11.05;6.22;;;18.40;99.90;;;;;;12397675;28;20193;-41
2021/06/29 03:00:24;;;;;;;20.33;6.60;;;18.40;99.90;;;;;;12403002;28;20042;-39
2021/06/29 03:06:26;;;;;;;15.27;6.47;;;18.30;99.90;;;;;;12398594;28;20064;-41
2021/06/29 03:12:27;;;;;;;16.63;6.35;;;18.30;99.90;;;;;;12393504;28;20141;-40
2021/06/29 03:18:29;;;;;;;20.38;6.97;;;18.40;99.90;;;;;;12395307;28;20524;-39
2021/06/29 03:24:31;;;;;;;20.48;7.80;;;18.40;99.90;;;;;;12406963;28;20710;-40
2021/06/29 03:30:33;;;;;;;12.27;7.60;;;18.40;99.90;;;;;;12395251;28;20050;-39
2021/06/29 03:36:35;;;;;;;12.82;7.88;;;18.40;99.90;;;;;;12402281;28;20479;-39
2021/06/29 03:42:37;;;;;;;12.68;7.85;;;18.50;99.90;;;;;;12398252;28;20045;-41
2021/06/29 03:48:39;;;;;;;13.73;7.90;;;18.50;99.90;;;;;;12394585;28;20136;-40
2021/06/29 03:54:41;;;;;;;13.25;8.25;;;18.50;99.90;;;;;;12397194;28;20046;-40
2021/06/29 04:00:43;;;;;;;18.92;8.00;;;18.60;99.90;;;;;;12395349;28;20180;-40
2021/06/29 04:06:45;;;;;;;14.32;7.75;;;18.50;99.90;;;;;;12397828;28;20088;-40
2021/06/29 04:12:47;;;;;;;15.02;8.30;;;18.50;99.90;;;;;;12395596;28;20123;-39
2021/06/29 04:18:49;;;;;;;10.95;7.68;;;18.50;99.90;;;;;;12395826;28;20103;-40
2021/06/29 04:24:51;;;;;;;14.77;7.00;;;18.60;99.90;;;;;;12393679;28;20093;-41
2021/06/29 04:30:53;;;;;;;9.90;5.30;;;18.60;99.90;;;;;;12393424;28;20125;-40
2021/06/29 04:36:55;;;;;;;11.43;4.82;;;18.50;99.90;;;;;;12391940;28;20995;-40
2021/06/29 04:42:57;;;;;;;8.35;4.25;;;18.60;99.90;;;;;;12390478;28;20520;-40
2021/06/29 04:48:59;;;;;;;8.48;3.85;;;18.60;99.90;;;;;;12370088;28;20127;-39
2021/06/29 04:55:01;;;;;;;8.57;4.90;;;18.60;99.90;;;;;;12380941;28;20050;-40
2021/06/29 05:01:03;;;;;;;8.02;4.20;;;18.60;99.90;;;;;;12373519;28;20050;-40
2021/06/29 05:07:05;;;;;;;10.13;5.40;;;18.70;99.90;;;;;;12381570;28;20061;-42
2021/06/29 05:13:06;;;;;;;8.90;5.28;;;18.80;99.90;;;;;;12384172;28;20046;-39
2021/06/29 05:19:08;;;;;;;11.70;5.90;;;18.80;99.90;;;;;;12383147;28;20577;-40
2021/06/29 05:25:11;;;;;;;9.65;5.55;;;18.70;99.90;;;;;;12381816;28;20449;-39
2021/06/29 05:31:12;;;;;;;8.80;5.22;;;18.80;99.90;;;;;;12388144;28;20124;-40
2021/06/29 05:37:14;;;;;;;10.35;6.10;;;18.80;99.90;;;;;;12395122;28;20101;-40
2021/06/29 05:43:16;;;;;;;10.63;5.40;;;18.90;99.90;;;;;;12399867;28;20076;-40
2021/06/29 05:49:18;;;;;;;6.60;5.68;;;18.90;99.90;;;;;;12397530;28;20136;-40
2021/06/29 05:55:20;;;;;;;7.75;5.20;;;19.00;99.90;;;;;;12402112;28;20099;-41
2021/06/29 06:01:42;;;;;;;9.32;5.80;;;19.00;99.90;;;;;;12388763;28;20104;-40
2021/06/29 06:07:45;;;;;;;9.68;6.50;;;19.00;99.90;;;;;;12394659;28;20115;-39
2021/06/29 06:13:47;;;;;;;11.35;7.28;;;18.90;99.90;;;;;;12386720;28;20569;-40
2021/06/29 06:19:49;;;;;;;8.68;6.28;;;18.90;99.90;;;;;;12391875;28;20534;-40
2021/06/29 06:25:51;;;;;;;9.85;5.45;;;18.90;99.90;;;;;;12393475;28;20049;-41
2021/06/29 06:31:53;;;;;;;10.63;4.50;;;19.00;99.90;;;;;;12397506;28;20434;-40
2021/06/29 06:37:55;;;;;;;5.32;4.03;;;19.00;99.90;;;;;;12396211;28;20367;-39
2021/06/29 06:43:57;;;;;;;7.85;3.35;;;18.90;99.90;;;;;;12394232;28;20540;-40
2021/06/29 06:49:59;;;;;;;5.15;2.92;;;18.90;99.90;;;;;;12381179;28;20100;-40
2021/06/29 06:56:01;;;;;;;4.03;3.13;;;18.80;99.90;;;;;;12398821;28;20161;-41
2021/06/29 07:02:03;;;;;;;7.50;3.17;;;18.80;99.90;;;;;;12388706;28;20077;-39
2021/06/29 07:08:05;;;;;;;4.65;3.30;;;18.80;99.90;;;;;;12391168;28;20050;-40
2021/06/29 07:14:07;;;;;;;5.95;2.92;;;18.90;99.90;;;;;;12386025;28;20112;-39
2021/06/29 07:20:10;;;;;;;4.78;2.60;;;19.00;99.90;;;;;;12386010;28;20132;-41
2021/06/29 07:26:15;;;;;;;5.73;2.70;;;19.20;99.90;;;;;;12384110;28;20149;-39
2021/06/29 07:32:17;;;;;;;5.10;2.67;;;19.50;99.90;;;;;;12390934;28;21117;-40
2021/06/29 07:38:18;;;;;;;6.78;2.88;;;19.50;99.90;;;;;;12393191;28;20120;-40
2021/06/29 07:44:20;;;;;;;4.22;3.25;;;19.60;99.90;;;;;;12388551;28;20046;-41
2021/06/29 07:50:22;;;;;;;5.97;3.42;;;19.60;99.90;;;;;;12383684;28;20140;-40
2021/06/29 07:56:25;;;;;;;8.57;3.90;;;19.50;99.90;;;;;;12388576;28;20490;-40
2021/06/29 08:02:26;;;;;;;4.13;3.05;;;19.60;99.90;;;;;;12391743;28;20907;-41
2021/06/29 08:08:29;;;;;;;7.88;3.15;;;19.70;99.90;;;;;;12384200;28;20057;-40
2021/06/29 08:14:31;;;;;;;5.10;3.08;;;19.60;99.90;;;;;;12387582;28;20545;-39
2021/06/29 08:20:33;;;;;;;8.35;3.20;;;19.50;99.90;;;;;;12373306;28;20145;-40
2021/06/29 08:26:35;;;;;;;4.10;3.53;;;19.60;99.90;;;;;;12391513;28;20124;-40
2021/06/29 08:32:38;;;;;;;4.30;3.53;;;19.70;99.90;;;;;;12386665;28;20060;-39
2021/06/29 08:38:40;;;;;;;5.35;3.30;;;19.90;99.90;;;;;;12382776;28;20046;-40
2021/06/29 08:44:41;;;;;;;8.85;3.80;;;20.10;99.90;;;;;;12388090;28;20104;-40
2021/06/29 08:50:43;;;;;;;4.30;3.67;;;20.30;99.90;;;;;;12378403;28;20587;-39
2021/06/29 08:56:46;;;;;;;5.50;4.25;;;20.50;99.90;;;;;;12384500;28;20112;-40
2021/06/29 09:02:48;;;;;;;5.78;3.88;;;20.70;99.90;;;;;;12379181;28;20502;-40
2021/06/29 09:08:49;;;;;;;6.75;4.40;;;20.90;99.90;;;;;;12377901;28;20062;-39
2021/06/29 09:14:51;;;;;;;6.93;4.80;;;21.00;99.90;;;;;;12378200;28;20597;-40
2021/06/29 09:20:57;;;;;;;6.97;4.75;;;21.40;99.90;;;;;;12394488;28;20100;-40
2021/06/29 09:26:59;;;;;;;5.97;4.50;;;21.50;99.90;;;;;;12393577;28;20084;-40
2021/06/29 09:33:11;;;;;;;7.05;5.57;;;21.40;99.90;;;;;;12391623;28;20445;-40
2021/06/29 09:39:14;;;;;;;7.03;5.10;;;21.40;99.90;;;;;;12382540;28;20108;-40
2021/06/29 09:45:41;;;;;;;8.50;5.35;;;21.30;99.90;;;;;;12385519;28;20088;-40
2021/06/29 09:51:52;;;;;;;6.07;4.95;;;21.50;99.90;;;;;;12378890;28;20077;-41
2021/06/29 09:58:07;;;;;;;7.10;5.15;;;21.80;99.90;;;;;;12383243;28;20073;-42
2021/06/29 10:04:09;;;;;;;6.82;4.85;;;22.20;99.90;;;;;;12376931;28;20100;-40
2021/06/29 10:10:16;;;;;;;5.65;4.93;;;22.50;99.90;;;;;;12384363;28;20052;-40
2021/06/29 10:16:22;;;;;;;5.80;4.80;;;22.70;99.90;;;;;;12376629;28;20088;-40
2021/06/29 10:22:24;;;;;;;5.72;5.10;;;22.90;99.90;;;;;;12389487;28;20097;-40
2021/06/29 10:28:26;;;;;;;8.13;5.50;;;22.60;99.90;;;;;;12393429;28;20050;-42
2021/06/29 10:34:28;;;;;;;8.45;5.63;;;22.20;99.90;;;;;;12391457;28;20062;-40
2021/06/29 10:40:33;;;;;;;5.40;3.85;;;22.20;99.90;;;;;;12393725;28;20066;-40
2021/06/29 10:46:48;;;;;;;6.35;4.43;;;22.60;99.90;;;;;;12392732;28;20061;-41
2021/06/29 10:52:50;;;;;;;5.03;4.40;;;22.80;99.90;;;;;;12393865;28;20054;-41
2021/06/29 10:58:52;;;;;;;7.63;5.85;;;22.70;99.90;;;;;;12392364;28;20077;-40
2021/06/29 11:04:58;;;;;;;8.33;5.30;;;22.60;99.90;;;;;;12383665;28;20127;-41
2021/06/29 11:11:09;;;;;;;7.10;5.13;;;22.40;99.90;;;;;;12377417;28;20092;-40
2021/06/29 11:17:11;;;;;;;6.18;4.53;;;22.10;99.90;;;;;;12391203;28;20054;-40
2021/06/29 11:23:16;;;;;;;7.90;5.30;;;22.00;99.90;;;;;;12388908;28;20046;-40
2021/06/29 11:29:40;;;;;;;9.50;5.93;;;21.90;99.90;;;;;;12387631;28;20475;-40
2021/06/29 11:35:42;;;;;;;;;;;22.30;99.90;;;;;;12398910;28;20445;-40
2021/06/29 11:41:59;;;;;;;5.22;3.35;;;23.50;99.90;;;;;;12385720;28;19975;-41
2021/06/29 11:48:01;;;;;;;3.97;2.80;;;24.40;99.90;;;;;;12381677;28;20149;-40
2021/06/29 11:54:03;;;;;;;8.45;3.25;;;24.80;99.90;;;;;;12388172;28;20133;-41
2021/06/29 12:00:07;;;;;;;13.77;3.13;;;25.00;99.90;;;;;;12392394;28;20064;-40
2021/06/29 12:06:16;;;;;;;5.88;2.92;;;;;;;;;;12390695;28;20147;-40
2021/06/29 12:12:24;;;;;;;5.78;3.00;;;25.90;99.90;;;;;;12379481;28;20103;-41
2021/06/29 12:18:36;;;;;;;7.15;3.60;;;26.00;99.90;;;;;;12378869;28;20052;-42
2021/06/29 12:24:38;;;;;;;6.03;2.93;;;25.80;99.90;;;;;;12370786;28;20813;-40
2021/06/29 12:30:42;;;;;;;4.10;2.40;;;26.00;99.90;;;;;;12375262;28;20096;-42
2021/06/29 12:36:44;;;;;;;5.10;2.38;;;26.00;99.90;;;;;;12374535;28;20049;-41
2021/06/29 12:42:47;;;;;;;4.45;2.42;;;25.70;99.90;;;;;;12378945;28;20365;-41
2021/06/29 12:49:04;;;;;;;4.43;2.60;;;26.10;99.90;;;;;;12387742;28;20062;-41
2021/06/29 12:55:13;;;;;;;6.38;2.80;;;25.60;99.90;;;;;;12383449;28;20060;-40
2021/06/29 13:01:17;;;;;;;3.30;2.72;;;26.10;99.90;;;;;;12377630;28;20048;-40
2021/06/29 13:07:22;;;;;;;3.85;2.88;;;26.30;99.90;;;;;;12382382;28;20127;-42
2021/06/29 13:13:24;;;;;;;4.85;3.33;;;26.30;99.90;;;;;;12371246;28;20057;-40
2021/06/29 13:19:26;;;;;;;5.28;3.33;;;26.00;99.90;;;;;;12384337;28;20050;-40
2021/06/29 13:25:34;;;;;;;4.82;3.60;;;25.60;99.90;;;;;;12371594;28;20614;-41
2021/06/29 13:31:56;;;;;;;7.28;3.35;;;25.40;99.90;;;;;;12379970;28;20568;-42
2021/06/29 13:38:09;;;;;;;5.43;3.50;;;25.70;99.90;;;;;;12371489;28;20049;-41
2021/06/29 13:44:15;;;;;;;3.83;3.45;;;25.30;99.90;;;;;;12366663;28;20132;-40
2021/06/29 13:50:18;;;;;;;5.07;4.25;;;25.00;99.90;;;;;;12377242;28;20058;-41
2021/06/29 13:56:37;;;;;;;5.95;4.80;;;25.00;99.90;;;;;;12381480;28;20064;-41
2021/06/29 14:02:39;;;;;;;5.38;4.85;;;25.90;99.90;;;;;;12386000;28;20046;-40
2021/06/29 14:08:46;;;;;;;9.10;5.03;;;25.90;99.90;;;;;;12388805;28;20056;-40
2021/06/29 14:14:48;;;;;;;8.57;5.18;;;25.90;99.90;;;;;;12380557;28;20503;-40
2021/06/29 14:20:50;;;;;;;7.90;5.63;;;24.90;99.90;;;;;;12387818;28;20076;-40
2021/06/29 14:26:52;;;;;;;7.50;6.70;;;24.60;99.90;;;;;;12382231;28;20096;-42
2021/06/29 14:32:58;;;;;;;8.77;6.88;;;24.50;99.90;;;;;;12389364;28;20054;-41
2021/06/29 14:39:00;;;;;;;7.70;6.90;;;24.70;99.90;;;;;;12387156;28;20104;-42
2021/06/29 14:45:04;;;;;;;8.40;7.50;;;25.50;99.90;;;;;;12378535;28;20058;-41
2021/06/29 14:51:06;;;;;;;8.77;7.88;;;25.90;99.90;;;;;;12381931;28;20049;-43
2021/06/29 14:57:08;;;;;;;11.75;9.15;;;25.20;99.90;;;;;;12377648;28;20062;-40
2021/06/29 15:03:10;;;;;;;10.02;9.05;;;24.70;99.90;;;;;;12373214;28;20494;-41
2021/06/29 15:09:12;;;;;;;8.55;7.13;;;24.20;99.90;;;;;;12378924;28;20775;-40
2021/06/29 15:15:18;;;;;;;8.88;6.97;;;24.90;99.90;;;;;;12372925;28;20046;-41
2021/06/29 15:21:19;;;;;;;8.88;7.70;;;25.50;99.90;;;;;;12381682;28;20051;-40
2021/06/29 15:27:22;;;;;;;9.40;8.50;;;25.90;99.90;;;;;;12379581;28;20149;-41
2021/06/29 15:33:24;;;;;;;10.37;9.37;;;26.00;99.90;;;;;;12388910;28;20049;-40
2021/06/29 15:39:25;;;;;;;13.18;11.80;;;25.80;99.90;;;;;;12394325;28;20301;-42
2021/06/29 15:45:28;;;;;;;8.05;7.25;;;26.10;99.90;;;;;;12389058;28;20474;-41
2021/06/29 15:51:34;;;;;;;6.88;5.88;;;26.30;99.90;;;;;;12369069;28;20482;-41
2021/06/29 15:57:37;;;;;;;6.43;5.63;;;26.50;99.90;;;;;;12385311;28;20121;-41
2021/06/29 16:03:39;;;;;;;8.60;6.30;;;26.30;99.90;;;;;;12380596;28;20078;-42
2021/06/29 16:09:41;;;;;;;5.30;4.55;;;26.20;99.90;;;;;;12375160;28;20141;-41
2021/06/29 16:15:45;;;;;;;;;;;26.50;99.90;;;;;;12374523;28;20037;-41
2021/06/29 16:21:47;;;;;;;;;;;26.70;99.90;;;;;;12378406;28;19967;-41
2021/06/29 16:27:49;;;;;;;4.60;4.10;;;26.60;99.90;;;;;;12387342;28;20025;-41
2021/06/29 16:33:50;;;;;;;5.97;4.85;;;26.20;99.90;;;;;;12376887;28;20049;-40
2021/06/29 16:39:52;;;;;;;5.47;4.65;;;25.80;99.90;;;;;;12382179;28;20439;-40
2021/06/29 16:46:06;;;;;;;5.80;5.30;;;25.40;99.90;;;;;;12377209;28;20081;-41
2021/06/29 16:52:08;;;;;;;7.38;5.88;;;25.60;99.90;;;;;;12373871;28;20112;-42
2021/06/29 16:58:13;;;;;;;8.27;5.47;;;25.40;99.90;;;;;;12379130;28;20058;-41
2021/06/29 17:04:15;;;;;;;8.30;6.50;;;25.60;99.90;;;;;;12370000;28;20188;-44
2021/06/29 17:10:17;;;;;;;7.53;6.43;;;25.40;99.90;;;;;;12374245;28;20054;-41
2021/06/29 17:16:19;;;;;;;7.50;5.88;;;25.40;99.90;;;;;;12371203;28;20688;-41
2021/06/29 17:22:21;;;;;;;6.82;5.20;;;25.60;99.90;;;;;;12371080;28;20050;-41
2021/06/29 17:28:23;;;;;;;6.10;5.50;;;25.60;99.90;;;;;;12382295;28;20100;-42
2021/06/29 17:34:25;;;;;;;8.10;6.50;;;25.50;99.90;;;;;;12385856;28;20050;-40
2021/06/29 17:40:27;;;;;;;8.68;7.82;;;25.50;99.90;;;;;;12380994;28;20104;-41
2021/06/29 17:46:29;;;;;;;9.73;8.52;;;25.30;99.90;;;;;;12386376;28;20088;-41
2021/06/29 17:52:32;;;;;;;10.48;7.72;;;24.60;99.90;;;;;;12376326;28;20050;-40
2021/06/29 17:58:34;;;;;;;12.02;8.18;;;25.00;99.90;;;;;;12384531;28;20054;-40
2021/06/29 18:04:36;;;;;;;8.07;7.15;;;25.00;99.90;;;;;;12382330;28;20129;-40
2021/06/29 18:10:38;;;;;;;8.60;7.30;;;24.80;99.90;;;;;;12389371;28;20131;-41
2021/06/29 18:16:41;;;;;;;7.50;6.60;;;24.60;99.90;;;;;;12383860;28;20046;-41
2021/06/29 18:22:43;;;;;;;10.10;7.53;;;24.50;99.90;;;;;;12392079;28;20133;-40
2021/06/29 18:28:44;;;;;;;10.02;7.60;;;24.40;99.90;;;;;;12377549;28;20054;-41
2021/06/29 18:34:46;;;;;;;9.65;8.15;;;23.80;99.90;;;;;;12386159;28;20168;-40
2021/06/29 18:40:49;;;;;;;9.80;8.80;;;23.60;99.90;;;;;;12384483;28;20057;-41
2021/06/29 18:46:51;;;;;;;10.25;8.32;;;23.50;99.90;;;;;;12387828;28;20046;-40
2021/06/29 18:52:53;;;;;;;11.60;10.40;;;23.40;99.90;;;;;;12380990;28;20075;-40
2021/06/29 18:58:55;;;;;;;14.55;11.13;;;23.10;99.90;;;;;;12389895;28;20499;-40
2021/06/29 19:05:00;;;;;;;14.73;12.00;;;22.90;99.90;;;;;;12388651;28;20442;-40
2021/06/29 19:11:01;;;;;;;13.45;11.05;;;22.50;99.90;;;;;;12388347;28;20053;-40
2021/06/29 19:17:04;;;;;;;15.35;12.93;;;22.10;99.90;;;;;;12396381;28;20116;-40
2021/06/29 19:23:06;;;;;;;13.97;12.57;;;21.80;99.90;;;;;;12387785;28;20046;-40
2021/06/29 19:29:08;;;;;;;14.13;12.55;;;21.70;99.90;;;;;;12385199;28;20301;-41
2021/06/29 19:35:11;;;;;;;15.48;13.55;;;21.60;99.90;;;;;;12386770;28;20072;-40
2021/06/29 19:41:13;;;;;;;14.15;12.38;;;21.60;99.90;;;;;;12381260;28;20116;-40
2021/06/29 19:47:15;;;;;;;14.90;13.35;;;21.50;99.90;;;;;;12378502;28;20104;-40
2021/06/29 19:53:17;;;;;;;13.43;12.07;;;21.40;99.90;;;;;;12392266;28;20046;-40
2021/06/29 19:59:18;;;;;;;14.75;13.10;;;21.20;99.90;;;;;;12385921;28;20191;-41
2021/06/29 20:05:20;;;;;;;14.95;13.38;;;21.10;99.90;;;;;;12389003;28;20050;-40
2021/06/29 20:11:22;;;;;;;14.20;12.70;;;21.00;99.90;;;;;;12383369;28;20131;-41
2021/06/29 20:17:28;;;;;;;14.95;13.40;;;21.00;99.90;;;;;;12384134;28;20049;-40
2021/06/29 20:23:30;;;;;;;15.70;13.57;;;20.90;99.90;;;;;;12380786;28;20129;-40
2021/06/29 20:29:32;;;;;;;17.98;13.65;;;21.00;99.90;;;;;;12392017;28;20049;-40
2021/06/29 20:35:34;;;;;;;13.93;11.60;;;20.90;99.90;;;;;;12378694;28;20099;-41
2021/06/29 20:41:38;;;;;;;14.05;12.55;;;20.80;99.90;;;;;;12381782;28;20552;-40
2021/06/29 20:47:40;;;;;;;;;;;20.80;99.90;;;;;;12387853;28;20516;-39
2021/06/29 20:53:42;;;;;;;13.27;11.88;;;20.80;99.90;;;;;;12384696;28;19925;-40
2021/06/29 20:59:45;;;;;;;14.02;12.52;;;20.70;99.90;;;;;;12391539;28;20088;-42
2021/06/29 21:06:07;;;;;;;14.20;11.40;;;20.60;99.90;;;;;;12390737;28;20050;-40
2021/06/29 21:12:13;;;;;;;15.13;11.00;;;20.60;99.90;;;;;;12400842;28;20145;-40
2021/06/29 21:18:20;;;;;;;13.57;11.50;;;20.50;99.90;;;;;;12401260;28;20073;-40
2021/06/29 21:24:27;;;;;;;13.88;11.85;;;20.50;99.90;;;;;;12399098;28;20085;-41
2021/06/29 21:30:34;;;;;;;12.10;10.80;;;20.40;99.90;;;;;;12398004;28;20069;-40
2021/06/29 21:36:42;;;;;;;14.07;12.60;;;20.40;99.90;;;;;;12400823;28;20069;-40
2021/06/29 21:42:49;;;;;;;12.35;11.05;;;20.30;99.90;;;;;;12404969;28;20073;-40
2021/06/29 21:48:56;;;;;;;15.25;11.65;;;20.20;99.90;;;;;;12409603;28;20096;-40
2021/06/29 21:55:04;;;;;;;12.70;11.35;;;20.30;99.90;;;;;;12405089;28;20134;-42
2021/06/29 22:01:11;;;;;;;11.98;10.80;;;20.10;99.90;;;;;;12397652;28;20537;-40
2021/06/29 22:07:17;;;;;;;12.93;11.65;;;19.90;99.90;;;;;;12405128;28;20088;-40
2021/06/29 22:13:25;;;;;;;16.20;12.13;;;19.80;99.90;;;;;;12398602;28;20525;-40
2021/06/29 22:19:28;;;;;;;12.73;10.80;;;19.40;99.90;;;;;;12398443;28;20054;-41
2021/06/29 22:25:35;;;;;;;9.32;7.43;;;19.30;99.90;;;;;;12382062;28;20440;-40
2021/06/29 22:31:42;;;;;;;7.22;3.78;;;18.70;99.90;;;;;;12394236;28;20510;-40
2021/06/29 22:37:49;;;;;;;5.07;3.47;;;18.50;99.90;;;;;;12388846;28;20206;-39
2021/06/29 22:43:56;;;;;;;7.93;3.30;;;18.30;99.90;;;;;;12384811;28;21032;-40
2021/06/29 22:50:03;;;;;;;6.93;4.40;;;18.00;99.90;;;;;;12385971;28;20216;-41
2021/06/29 22:56:10;;;;;;;7.60;5.13;;;17.60;99.90;;;;;;12387177;28;20072;-39
2021/06/29 23:02:17;;;;;;;14.38;7.03;;;17.40;99.90;;;;;;12390755;28;20066;-39
2021/06/29 23:08:24;;;;;;;10.30;4.90;;;17.20;99.90;;;;;;12392601;28;20136;-39
2021/06/29 23:14:31;;;;;;;8.23;3.67;;;17.20;99.90;;;;;;12383315;28;20635;-39
2021/06/29 23:20:38;;;;;;;4.93;3.70;;;17.10;99.90;;;;;;12389047;28;20499;-40
2021/06/29 23:26:44;;;;;;;6.63;3.90;;;16.80;99.90;;;;;;12388084;28;20157;-39
2021/06/29 23:32:51;;;;;;;8.45;3.60;;;16.60;99.90;;;;;;12390934;28;20153;-39
2021/06/29 23:38:58;;;;;;;7.53;3.40;;;16.90;99.90;;;;;;12379470;28;20054;-40
2021/06/29 23:45:06;;;;;;;6.53;3.80;;;17.10;99.90;;;;;;12390864;28;20050;-40
2021/06/29 23:51:13;;;;;;;4.32;3.20;;;17.20;99.90;;;;;;12386159;28;20073;-39
2021/06/29 23:57:20;;;;;;;6.55;2.90;;;17.40;99.90;;;;;;12383531;28;20093;-40
